首页
METAR-TAF:

METAR-TAF

机场 :

溫哥華國際機場

溫哥華, 不列颠哥伦比亚, 加拿大

纬度: 49-11N, 经度: 123-10W, 海拔: 3米

当前天气观测

该预报发布于23分钟前的21:06 UTC
风速5节,风向西南
温度 10°C
湿度 93%
气压 1014 hPa
能見度: 1.0公里
散云层高于100英尺
散云层高于400英尺
轻雾

METAR: CYVR 222106Z 23005KT 5/8SM R26L/P6000FT/N R26R/P6000FT/N BR SCT001 SCT004 10/09 A2994 RMK SF3SF1 VIS NE-SE 30SM SLP139

时间: 14:29 (21:29 UTC)

预报

该预报发布于18分钟前的21:11 UTC
预报有效从22日的 21点(UTC)到 23日的 24点(UTC)
风速5节,风向西
能見度: 10公里
少量云层高于200英尺
附近有雾
短暂存在
从 22日的 21点(UTC)到 22日的 22点(UTC)
能見度: 1.2公里
散云层高于100英尺
轻雾
从 22日的 2200点(UTC)
风速6节,风向西
能見度: 10公里
少量云层高于200英尺
少量云层高于25000英尺
从 23日的 0900点(UTC)
风速5节,风向
能見度: 10公里
少量云层高于200英尺
附近有雾
几率 40%
从 23日的 09点(UTC)到 23日的 16点(UTC)
能見度: 0.8公里
层高于200英尺
从 23日的 1800点(UTC)
风速6节,风向
能見度: 10公里
少量云层高于25000英尺

TAF: CYVR 222111Z 2221/2324 26005KT P6SM VCFG FEW002 TEMPO 2221/2222 3/4SM BR SCT001 FM222200 26006KT P6SM FEW002 FEW250 FM230900 10005KT P6SM VCFG FEW002 PROB40 2309/2316 1/2SM FG VV002 FM231800 09006KT P6SM FEW250 RMK NXT FCST BY 230000Z

超过4000个机场的气象观测和天气预报(METAR&TAF报告)。

可查询的气象台以黄色和红色小点在地图上表示。

将鼠标移到小点上方,可查看气象台名称。

然后点击查看天气观测和预报。

如需切换地图:点击带黑十字的绿色按钮放大地图;点击带横线的绿色按钮缩小地图;或者点击绿色箭头查看邻近地区的地图。


METAR-TAF: